sensor_id;sensor_type;location;lat;lon;timestamp;P1;durP1;ratioP1;P2;durP2;ratioP2
46290;SDS011;32023;44.444;26.006;2024-02-26T00:00:32;56.38;;;31.23;;
46290;SDS011;32023;44.444;26.006;2024-02-26T00:03:23;52.30;;;31.13;;
46290;SDS011;32023;44.444;26.006;2024-02-26T00:06:30;59.38;;;30.60;;
46290;SDS011;32023;44.444;26.006;2024-02-26T00:09:27;61.72;;;31.90;;
46290;SDS011;32023;44.444;26.006;2024-02-26T00:12:18;54.42;;;30.48;;
46290;SDS011;32023;44.444;26.006;2024-02-26T00:15:14;52.63;;;29.75;;
46290;SDS011;32023;44.444;26.006;2024-02-26T00:18:21;52.63;;;30.85;;
46290;SDS011;32023;44.444;26.006;2024-02-26T00:21:17;53.15;;;30.48;;
46290;SDS011;32023;44.444;26.006;2024-02-26T00:23:53;61.28;;;30.58;;
46290;SDS011;32023;44.444;26.006;2024-02-26T00:29:03;54.38;;;28.67;;
46290;SDS011;32023;44.444;26.006;2024-02-26T00:34:37;55.92;;;30.08;;
46290;SDS011;32023;44.444;26.006;2024-02-26T00:37:19;52.97;;;30.15;;
46290;SDS011;32023;44.444;26.006;2024-02-26T00:40:03;59.30;;;30.73;;
46290;SDS011;32023;44.444;26.006;2024-02-26T00:42:41;53.75;;;30.30;;
46290;SDS011;32023;44.444;26.006;2024-02-26T00:45:28;56.47;;;31.08;;
46290;SDS011;32023;44.444;26.006;2024-02-26T00:48:08;56.10;;;31.27;;
46290;SDS011;32023;44.444;26.006;2024-02-26T00:50:39;60.25;;;31.13;;
46290;SDS011;32023;44.444;26.006;2024-02-26T00:53:18;54.72;;;30.42;;
46290;SDS011;32023;44.444;26.006;2024-02-26T00:55:47;52.22;;;31.75;;
46290;SDS011;32023;44.444;26.006;2024-02-26T00:58:24;62.10;;;32.45;;
46290;SDS011;32023;44.444;26.006;2024-02-26T01:00:59;52.78;;;30.73;;
46290;SDS011;32023;44.444;26.006;2024-02-26T01:03:53;54.38;;;31.45;;
46290;SDS011;32023;44.444;26.006;2024-02-26T01:06:25;54.50;;;31.70;;
46290;SDS011;32023;44.444;26.006;2024-02-26T01:09:07;55.38;;;31.70;;
46290;SDS011;32023;44.444;26.006;2024-02-26T01:11:42;58.17;;;31.17;;
46290;SDS011;32023;44.444;26.006;2024-02-26T01:16:46;53.10;;;29.60;;
46290;SDS011;32023;44.444;26.006;2024-02-26T01:19:21;46.92;;;30.02;;
46290;SDS011;32023;44.444;26.006;2024-02-26T01:21:47;54.88;;;30.92;;
46290;SDS011;32023;44.444;26.006;2024-02-26T01:24:21;49.63;;;30.08;;
46290;SDS011;32023;44.444;26.006;2024-02-26T01:27:01;51.10;;;30.73;;
46290;SDS011;32023;44.444;26.006;2024-02-26T01:29:30;56.22;;;29.63;;
46290;SDS011;32023;44.444;26.006;2024-02-26T01:32:11;61.95;;;30.88;;
46290;SDS011;32023;44.444;26.006;2024-02-26T01:34:46;53.35;;;30.35;;
46290;SDS011;32023;44.444;26.006;2024-02-26T01:37:15;52.57;;;30.10;;
46290;SDS011;32023;44.444;26.006;2024-02-26T01:39:41;58.42;;;30.42;;
46290;SDS011;32023;44.444;26.006;2024-02-26T01:42:20;47.67;;;29.15;;
46290;SDS011;32023;44.444;26.006;2024-02-26T01:44:49;50.10;;;29.70;;
46290;SDS011;32023;44.444;26.006;2024-02-26T01:47:16;66.03;;;30.75;;
46290;SDS011;32023;44.444;26.006;2024-02-26T01:52:25;51.85;;;29.90;;
46290;SDS011;32023;44.444;26.006;2024-02-26T01:58:34;42.97;;;27.63;;
46290;SDS011;32023;44.444;26.006;2024-02-26T02:01:04;50.10;;;29.65;;
46290;SDS011;32023;44.444;26.006;2024-02-26T02:06:31;46.13;;;27.33;;
46290;SDS011;32023;44.444;26.006;2024-02-26T02:09:39;50.45;;;29.30;;
46290;SDS011;32023;44.444;26.006;2024-02-26T02:19:16;45.35;;;27.52;;
46290;SDS011;32023;44.444;26.006;2024-02-26T02:22:13;53.38;;;28.38;;
46290;SDS011;32023;44.444;26.006;2024-02-26T02:27:56;48.70;;;26.40;;
46290;SDS011;32023;44.444;26.006;2024-02-26T02:30:29;46.20;;;26.33;;
46290;SDS011;32023;44.444;26.006;2024-02-26T02:33:26;50.13;;;27.00;;
46290;SDS011;32023;44.444;26.006;2024-02-26T02:44:38;42.80;;;26.38;;
46290;SDS011;32023;44.444;26.006;2024-02-26T02:51:02;49.63;;;27.10;;
46290;SDS011;32023;44.444;26.006;2024-02-26T02:54:02;45.47;;;26.85;;
46290;SDS011;32023;44.444;26.006;2024-02-26T02:56:30;47.85;;;27.80;;
46290;SDS011;32023;44.444;26.006;2024-02-26T03:02:25;44.80;;;27.33;;
46290;SDS011;32023;44.444;26.006;2024-02-26T03:05:03;44.40;;;25.95;;
46290;SDS011;32023;44.444;26.006;2024-02-26T03:07:54;50.10;;;27.73;;
46290;SDS011;32023;44.444;26.006;2024-02-26T03:17:50;57.15;;;29.83;;
46290;SDS011;32023;44.444;26.006;2024-02-26T03:20:46;53.58;;;27.52;;
46290;SDS011;32023;44.444;26.006;2024-02-26T03:26:36;57.78;;;29.60;;
46290;SDS011;32023;44.444;26.006;2024-02-26T03:29:18;54.75;;;30.17;;
46290;SDS011;32023;44.444;26.006;2024-02-26T03:31:48;51.03;;;30.70;;
46290;SDS011;32023;44.444;26.006;2024-02-26T03:37:40;53.05;;;30.30;;
46290;SDS011;32023;44.444;26.006;2024-02-26T03:40:22;56.67;;;30.95;;
46290;SDS011;32023;44.444;26.006;2024-02-26T03:42:55;54.03;;;30.45;;
46290;SDS011;32023;44.444;26.006;2024-02-26T03:45:37;47.80;;;28.30;;
46290;SDS011;32023;44.444;26.006;2024-02-26T03:48:08;51.70;;;30.42;;
46290;SDS011;32023;44.444;26.006;2024-02-26T03:50:42;56.42;;;31.85;;
46290;SDS011;32023;44.444;26.006;2024-02-26T03:53:09;58.10;;;33.00;;
46290;SDS011;32023;44.444;26.006;2024-02-26T04:01:14;55.88;;;31.25;;
46290;SDS011;32023;44.444;26.006;2024-02-26T04:03:52;49.13;;;30.55;;
46290;SDS011;32023;44.444;26.006;2024-02-26T04:09:24;51.40;;;30.90;;
46290;SDS011;32023;44.444;26.006;2024-02-26T04:12:16;51.33;;;29.25;;
46290;SDS011;32023;44.444;26.006;2024-02-26T04:15:09;50.70;;;30.65;;
46290;SDS011;32023;44.444;26.006;2024-02-26T04:17:39;63.72;;;30.80;;
46290;SDS011;32023;44.444;26.006;2024-02-26T04:20:06;58.03;;;33.38;;
46290;SDS011;32023;44.444;26.006;2024-02-26T04:22:38;54.30;;;32.00;;
46290;SDS011;32023;44.444;26.006;2024-02-26T04:25:42;56.70;;;31.88;;
46290;SDS011;32023;44.444;26.006;2024-02-26T04:30:57;56.28;;;33.47;;
46290;SDS011;32023;44.444;26.006;2024-02-26T04:33:36;55.15;;;31.80;;
46290;SDS011;32023;44.444;26.006;2024-02-26T04:36:11;55.92;;;32.00;;
46290;SDS011;32023;44.444;26.006;2024-02-26T04:38:47;57.15;;;31.70;;
46290;SDS011;32023;44.444;26.006;2024-02-26T04:41:24;57.28;;;33.05;;
46290;SDS011;32023;44.444;26.006;2024-02-26T04:43:54;57.83;;;33.90;;
46290;SDS011;32023;44.444;26.006;2024-02-26T04:46:23;53.65;;;31.95;;
46290;SDS011;32023;44.444;26.006;2024-02-26T04:49:05;54.90;;;32.63;;
46290;SDS011;32023;44.444;26.006;2024-02-26T04:51:36;57.33;;;34.10;;
46290;SDS011;32023;44.444;26.006;2024-02-26T04:56:37;58.72;;;34.33;;
46290;SDS011;32023;44.444;26.006;2024-02-26T04:59:03;63.75;;;33.85;;
46290;SDS011;32023;44.444;26.006;2024-02-26T05:01:32;68.30;;;36.00;;
46290;SDS011;32023;44.444;26.006;2024-02-26T05:03:59;58.00;;;34.05;;
46290;SDS011;32023;44.444;26.006;2024-02-26T05:06:36;57.22;;;34.92;;
46290;SDS011;32023;44.444;26.006;2024-02-26T05:09:06;59.15;;;35.28;;
46290;SDS011;32023;44.444;26.006;2024-02-26T05:11:35;57.05;;;35.00;;
46290;SDS011;32023;44.444;26.006;2024-02-26T05:14:04;63.90;;;35.63;;
46290;SDS011;32023;44.444;26.006;2024-02-26T05:16:31;58.80;;;36.10;;
46290;SDS011;32023;44.444;26.006;2024-02-26T05:19:13;73.07;;;36.40;;
46290;SDS011;32023;44.444;26.006;2024-02-26T05:21:44;65.95;;;36.00;;
46290;SDS011;32023;44.444;26.006;2024-02-26T05:24:14;57.78;;;35.05;;
46290;SDS011;32023;44.444;26.006;2024-02-26T05:29:26;63.38;;;36.20;;
46290;SDS011;32023;44.444;26.006;2024-02-26T05:31:56;61.13;;;36.15;;
46290;SDS011;32023;44.444;26.006;2024-02-26T05:34:22;58.72;;;34.45;;
46290;SDS011;32023;44.444;26.006;2024-02-26T05:36:49;62.67;;;36.17;;
46290;SDS011;32023;44.444;26.006;2024-02-26T05:39:18;62.00;;;36.28;;
46290;SDS011;32023;44.444;26.006;2024-02-26T05:41:54;59.40;;;34.30;;
46290;SDS011;32023;44.444;26.006;2024-02-26T05:44:30;60.05;;;35.47;;
46290;SDS011;32023;44.444;26.006;2024-02-26T05:47:18;59.22;;;36.17;;
46290;SDS011;32023;44.444;26.006;2024-02-26T05:49:50;65.88;;;36.72;;
46290;SDS011;32023;44.444;26.006;2024-02-26T05:58:45;61.97;;;34.20;;
46290;SDS011;32023;44.444;26.006;2024-02-26T06:01:28;60.53;;;35.20;;
46290;SDS011;32023;44.444;26.006;2024-02-26T06:04:06;58.00;;;36.42;;
46290;SDS011;32023;44.444;26.006;2024-02-26T06:07:00;58.72;;;34.47;;
46290;SDS011;32023;44.444;26.006;2024-02-26T06:09:41;59.13;;;34.13;;
46290;SDS011;32023;44.444;26.006;2024-02-26T06:18:41;54.53;;;31.88;;
46290;SDS011;32023;44.444;26.006;2024-02-26T06:27:35;56.47;;;30.80;;
46290;SDS011;32023;44.444;26.006;2024-02-26T06:30:06;50.35;;;30.65;;
46290;SDS011;32023;44.444;26.006;2024-02-26T06:32:45;53.05;;;31.85;;
46290;SDS011;32023;44.444;26.006;2024-02-26T06:35:20;51.42;;;30.20;;
46290;SDS011;32023;44.444;26.006;2024-02-26T06:37:56;46.55;;;30.60;;
46290;SDS011;32023;44.444;26.006;2024-02-26T06:40:25;52.78;;;28.05;;
46290;SDS011;32023;44.444;26.006;2024-02-26T06:42:52;49.22;;;30.42;;
46290;SDS011;32023;44.444;26.006;2024-02-26T06:53:14;46.17;;;26.55;;
46290;SDS011;32023;44.444;26.006;2024-02-26T06:58:21;41.90;;;26.42;;
46290;SDS011;32023;44.444;26.006;2024-02-26T07:01:18;40.00;;;24.83;;
46290;SDS011;32023;44.444;26.006;2024-02-26T07:03:58;44.08;;;26.67;;
46290;SDS011;32023;44.444;26.006;2024-02-26T07:07:04;41.58;;;24.23;;
46290;SDS011;32023;44.444;26.006;2024-02-26T07:09:41;39.90;;;24.23;;
46290;SDS011;32023;44.444;26.006;2024-02-26T07:12:33;36.03;;;21.33;;
46290;SDS011;32023;44.444;26.006;2024-02-26T07:15:04;38.63;;;24.17;;
46290;SDS011;32023;44.444;26.006;2024-02-26T07:17:40;35.10;;;22.75;;
46290;SDS011;32023;44.444;26.006;2024-02-26T07:20:56;36.13;;;22.80;;
46290;SDS011;32023;44.444;26.006;2024-02-26T07:23:38;41.17;;;22.27;;
46290;SDS011;32023;44.444;26.006;2024-02-26T07:26:16;38.67;;;21.70;;
46290;SDS011;32023;44.444;26.006;2024-02-26T07:28:59;36.40;;;22.25;;
46290;SDS011;32023;44.444;26.006;2024-02-26T07:31:35;32.28;;;21.83;;
46290;SDS011;32023;44.444;26.006;2024-02-26T07:34:26;37.60;;;21.73;;
46290;SDS011;32023;44.444;26.006;2024-02-26T07:37:18;40.97;;;20.73;;
46290;SDS011;32023;44.444;26.006;2024-02-26T07:39:45;33.30;;;18.92;;
46290;SDS011;32023;44.444;26.006;2024-02-26T07:42:27;33.03;;;20.33;;
46290;SDS011;32023;44.444;26.006;2024-02-26T07:48:56;30.88;;;19.30;;
46290;SDS011;32023;44.444;26.006;2024-02-26T07:51:37;34.05;;;18.13;;
46290;SDS011;32023;44.444;26.006;2024-02-26T07:54:06;27.75;;;17.88;;
46290;SDS011;32023;44.444;26.006;2024-02-26T07:56:46;29.63;;;17.73;;
46290;SDS011;32023;44.444;26.006;2024-02-26T07:59:35;30.17;;;17.77;;
46290;SDS011;32023;44.444;26.006;2024-02-26T08:02:07;26.88;;;17.63;;
46290;SDS011;32023;44.444;26.006;2024-02-26T08:04:42;30.42;;;16.92;;
46290;SDS011;32023;44.444;26.006;2024-02-26T08:07:12;33.88;;;17.60;;
46290;SDS011;32023;44.444;26.006;2024-02-26T08:09:53;24.33;;;16.13;;
46290;SDS011;32023;44.444;26.006;2024-02-26T08:12:20;21.75;;;15.30;;
46290;SDS011;32023;44.444;26.006;2024-02-26T08:14:50;29.25;;;16.27;;
46290;SDS011;32023;44.444;26.006;2024-02-26T08:17:23;29.73;;;16.88;;
46290;SDS011;32023;44.444;26.006;2024-02-26T08:22:36;24.08;;;16.05;;
46290;SDS011;32023;44.444;26.006;2024-02-26T08:25:21;30.20;;;17.20;;
46290;SDS011;32023;44.444;26.006;2024-02-26T08:28:09;26.70;;;16.50;;
46290;SDS011;32023;44.444;26.006;2024-02-26T08:31:16;23.95;;;15.55;;
46290;SDS011;32023;44.444;26.006;2024-02-26T09:59:43;22.67;;;11.50;;
46290;SDS011;32023;44.444;26.006;2024-02-26T10:14:59;17.10;;;11.40;;
46290;SDS011;32023;44.444;26.006;2024-02-26T17:07:55;13.45;;;4.68;;
46290;SDS011;32023;44.444;26.006;2024-02-26T17:21:45;13.82;;;4.68;;
46290;SDS011;32023;44.444;26.006;2024-02-26T17:50:21;23.90;;;7.65;;
46290;SDS011;32023;44.444;26.006;2024-02-26T18:08:19;15.80;;;6.93;;
46290;SDS011;32023;44.444;26.006;2024-02-26T18:19:30;17.88;;;8.07;;
46290;SDS011;32023;44.444;26.006;2024-02-26T18:22:35;19.60;;;8.53;;
46290;SDS011;32023;44.444;26.006;2024-02-26T18:39:05;19.55;;;8.10;;
46290;SDS011;32023;44.444;26.006;2024-02-26T18:41:51;26.10;;;8.18;;
46290;SDS011;32023;44.444;26.006;2024-02-26T18:51:10;22.55;;;9.20;;
46290;SDS011;32023;44.444;26.006;2024-02-26T18:53:46;22.85;;;10.60;;
46290;SDS011;32023;44.444;26.006;2024-02-26T19:00:08;18.77;;;8.43;;
46290;SDS011;32023;44.444;26.006;2024-02-26T19:02:47;21.83;;;8.77;;
46290;SDS011;32023;44.444;26.006;2024-02-26T19:08:54;19.40;;;8.57;;
46290;SDS011;32023;44.444;26.006;2024-02-26T19:12:11;21.15;;;8.82;;
46290;SDS011;32023;44.444;26.006;2024-02-26T19:18:16;27.20;;;10.43;;
46290;SDS011;32023;44.444;26.006;2024-02-26T19:24:50;23.67;;;10.70;;
46290;SDS011;32023;44.444;26.006;2024-02-26T19:41:30;27.85;;;10.80;;
46290;SDS011;32023;44.444;26.006;2024-02-26T19:47:45;22.40;;;9.32;;
46290;SDS011;32023;44.444;26.006;2024-02-26T19:50:41;34.83;;;11.02;;
46290;SDS011;32023;44.444;26.006;2024-02-26T20:19:43;20.35;;;9.35;;
46290;SDS011;32023;44.444;26.006;2024-02-26T20:32:16;26.00;;;10.73;;
46290;SDS011;32023;44.444;26.006;2024-02-26T21:00:40;29.60;;;11.00;;
46290;SDS011;32023;44.444;26.006;2024-02-26T22:01:34;24.33;;;10.45;;
46290;SDS011;32023;44.444;26.006;2024-02-26T22:11:37;24.55;;;9.55;;
46290;SDS011;32023;44.444;26.006;2024-02-26T22:14:00;22.77;;;10.13;;
46290;SDS011;32023;44.444;26.006;2024-02-26T22:17:06;26.40;;;9.77;;
46290;SDS011;32023;44.444;26.006;2024-02-26T22:19:58;22.08;;;9.43;;
46290;SDS011;32023;44.444;26.006;2024-02-26T22:22:27;29.23;;;10.07;;
46290;SDS011;32023;44.444;26.006;2024-02-26T22:25:16;27.80;;;9.63;;
46290;SDS011;32023;44.444;26.006;2024-02-26T22:27:53;25.50;;;8.98;;
46290;SDS011;32023;44.444;26.006;2024-02-26T22:36:43;25.33;;;9.88;;
46290;SDS011;32023;44.444;26.006;2024-02-26T22:39:28;31.00;;;10.52;;
46290;SDS011;32023;44.444;26.006;2024-02-26T22:42:16;21.90;;;9.50;;
46290;SDS011;32023;44.444;26.006;2024-02-26T22:47:37;28.15;;;9.05;;
46290;SDS011;32023;44.444;26.006;2024-02-26T22:50:13;22.35;;;8.32;;
46290;SDS011;32023;44.444;26.006;2024-02-26T22:56:17;21.77;;;8.70;;
46290;SDS011;32023;44.444;26.006;2024-02-26T22:59:15;19.50;;;7.25;;
46290;SDS011;32023;44.444;26.006;2024-02-26T23:01:59;17.52;;;7.63;;
46290;SDS011;32023;44.444;26.006;2024-02-26T23:04:37;24.83;;;7.18;;
46290;SDS011;32023;44.444;26.006;2024-02-26T23:07:26;17.75;;;7.72;;
46290;SDS011;32023;44.444;26.006;2024-02-26T23:09:55;20.73;;;6.93;;
46290;SDS011;32023;44.444;26.006;2024-02-26T23:12:55;18.65;;;7.03;;
46290;SDS011;32023;44.444;26.006;2024-02-26T23:15:22;26.58;;;6.43;;
46290;SDS011;32023;44.444;26.006;2024-02-26T23:20:51;25.55;;;6.78;;
46290;SDS011;32023;44.444;26.006;2024-02-26T23:23:23;22.58;;;7.13;;
46290;SDS011;32023;44.444;26.006;2024-02-26T23:25:52;20.55;;;7.13;;
46290;SDS011;32023;44.444;26.006;2024-02-26T23:28:30;19.45;;;7.05;;
46290;SDS011;32023;44.444;26.006;2024-02-26T23:31:08;23.20;;;7.82;;
46290;SDS011;32023;44.444;26.006;2024-02-26T23:33:54;22.33;;;7.18;;
46290;SDS011;32023;44.444;26.006;2024-02-26T23:36:47;24.48;;;6.88;;
46290;SDS011;32023;44.444;26.006;2024-02-26T23:39:42;15.82;;;5.80;;
46290;SDS011;32023;44.444;26.006;2024-02-26T23:45:21;18.42;;;5.50;;
46290;SDS011;32023;44.444;26.006;2024-02-26T23:47:50;22.42;;;6.22;;
46290;SDS011;32023;44.444;26.006;2024-02-26T23:50:19;20.13;;;7.00;;
46290;SDS011;32023;44.444;26.006;2024-02-26T23:53:06;27.35;;;6.55;;
46290;SDS011;32023;44.444;26.006;2024-02-26T23:55:47;17.83;;;6.28;;
46290;SDS011;32023;44.444;26.006;2024-02-26T23:58:14;19.05;;;6.70;;
